createdAt,value
2019-02-05T00:00:12.161Z,3.78
2019-02-05T00:02:39.118Z,3.70
2019-02-05T00:05:06.122Z,3.76
2019-02-05T00:07:33.092Z,3.73
2019-02-05T00:10:00.020Z,3.70
2019-02-05T00:12:26.989Z,3.81
2019-02-05T00:14:54.114Z,3.58
2019-02-05T00:17:21.082Z,3.58
2019-02-05T00:19:48.197Z,3.49
2019-02-05T00:22:15.154Z,3.57
2019-02-05T00:24:42.345Z,3.51
2019-02-05T00:27:09.297Z,3.44
2019-02-05T00:29:36.232Z,3.57
2019-02-05T00:32:03.308Z,3.60
2019-02-05T00:34:30.222Z,3.51
2019-02-05T00:36:57.154Z,3.61
2019-02-05T00:39:24.054Z,3.54
2019-02-05T00:41:51.371Z,3.55
2019-02-05T00:44:18.302Z,3.51
2019-02-05T00:46:45.238Z,3.46
2019-02-05T00:49:12.151Z,3.45
2019-02-05T00:51:39.086Z,3.38
2019-02-05T00:54:06.176Z,3.25
2019-02-05T00:56:33.118Z,3.27
2019-02-05T00:58:59.995Z,3.28
2019-02-05T01:01:27.107Z,3.39
2019-02-05T01:03:54.021Z,3.28
2019-02-05T01:06:20.918Z,3.26
2019-02-05T01:08:47.842Z,3.25
2019-02-05T01:11:14.724Z,3.25
2019-02-05T01:13:41.905Z,3.10
2019-02-05T01:16:08.808Z,3.12
2019-02-05T01:18:36.129Z,3.01
2019-02-05T01:21:03.451Z,3.05
2019-02-05T01:23:30.430Z,3.16
2019-02-05T01:25:57.306Z,3.12
2019-02-05T01:28:24.248Z,2.98
2019-02-05T01:30:51.230Z,3.00
2019-02-05T01:33:18.153Z,2.92
2019-02-05T01:35:45.354Z,2.94
2019-02-05T01:38:12.336Z,2.92
2019-02-05T01:40:39.323Z,2.86
2019-02-05T01:43:06.275Z,2.74
2019-02-05T01:45:33.166Z,2.93
2019-02-05T01:48:00.103Z,2.74
2019-02-05T01:50:27.765Z,2.65
2019-02-05T01:52:54.710Z,2.73
2019-02-05T01:55:22.091Z,2.87
2019-02-05T01:57:49.032Z,2.78
2019-02-05T02:00:18.597Z,2.95
2019-02-05T02:02:45.635Z,2.78
2019-02-05T02:05:12.942Z,2.73
2019-02-05T02:07:39.829Z,2.67
2019-02-05T02:10:08.343Z,2.68
2019-02-05T02:12:35.427Z,2.77
2019-02-05T02:15:03.609Z,2.71
2019-02-05T02:17:30.647Z,2.66
2019-02-05T02:19:57.567Z,2.65
2019-02-05T02:22:24.470Z,2.82
2019-02-05T02:24:51.430Z,2.76
2019-02-05T02:27:18.376Z,2.78
2019-02-05T02:29:45.757Z,2.79
2019-02-05T02:32:12.664Z,2.77
2019-02-05T02:34:39.634Z,2.86
2019-02-05T02:37:06.532Z,2.83
2019-02-05T02:39:33.463Z,2.75
2019-02-05T02:42:00.351Z,2.78
2019-02-05T02:44:27.267Z,2.78
2019-02-05T02:46:54.210Z,2.69
2019-02-05T02:49:21.451Z,2.62
2019-02-05T02:51:48.335Z,2.62
2019-02-05T02:54:15.268Z,2.68
2019-02-05T02:56:42.160Z,2.76
2019-02-05T02:59:09.099Z,2.75
2019-02-05T03:01:36.074Z,2.83
2019-02-05T03:04:03.181Z,2.96
2019-02-05T03:06:30.069Z,2.66
2019-02-05T03:08:57.247Z,2.66
2019-02-05T03:11:24.168Z,2.62
2019-02-05T03:13:51.143Z,2.59
2019-02-05T03:16:18.030Z,2.72
2019-02-05T03:18:45.048Z,2.70
2019-02-05T03:21:11.942Z,2.74
2019-02-05T03:23:38.867Z,2.76
2019-02-05T03:26:05.756Z,2.78
2019-02-05T03:28:32.673Z,2.78
2019-02-05T03:31:00.089Z,2.85
2019-02-05T03:33:27.045Z,2.72
2019-02-05T03:35:53.920Z,2.79
2019-02-05T03:38:20.822Z,2.81
2019-02-05T03:41:07.872Z,2.86
2019-02-05T03:43:39.450Z,2.94
2019-02-05T03:46:29.279Z,2.94
2019-02-05T03:48:56.876Z,2.82
2019-02-05T03:51:43.831Z,2.73
2019-02-05T03:54:27.116Z,2.72
2019-02-05T03:57:09.265Z,2.80
2019-02-05T03:59:55.111Z,2.66
2019-02-05T04:02:53.201Z,2.66
2019-02-05T04:05:42.345Z,2.70
2019-02-05T04:08:53.954Z,2.80
2019-02-05T04:11:47.525Z,2.81
2019-02-05T04:14:44.173Z,2.82
2019-02-05T04:18:03.683Z,2.86
2019-02-05T04:21:08.494Z,2.78
2019-02-05T04:24:12.040Z,2.79
2019-02-05T04:27:04.423Z,2.81
2019-02-05T04:29:51.834Z,2.81
2019-02-05T04:32:59.462Z,2.83
2019-02-05T04:36:08.660Z,2.81
2019-02-05T04:39:13.259Z,2.82
2019-02-05T04:42:27.777Z,2.91
2019-02-05T04:45:16.810Z,2.84
2019-02-05T04:48:01.327Z,2.84
2019-02-05T04:50:51.591Z,2.76
2019-02-05T04:53:42.495Z,2.71
2019-02-05T04:56:38.318Z,2.91
2019-02-05T04:59:47.467Z,3.01
2019-02-05T05:03:12.626Z,3.00
2019-02-05T05:06:33.674Z,3.10
2019-02-05T05:09:34.069Z,2.88
2019-02-05T05:12:01.031Z,2.75
2019-02-05T05:14:27.941Z,2.83
2019-02-05T05:16:54.935Z,2.97
2019-02-05T05:19:22.123Z,2.98
2019-02-05T05:21:49.642Z,2.91
2019-02-05T05:24:17.044Z,2.86
2019-02-05T05:26:44.117Z,2.98
2019-02-05T05:29:11.013Z,2.89
2019-02-05T05:31:37.936Z,2.97
2019-02-05T05:34:04.827Z,2.84
2019-02-05T05:36:31.773Z,2.86
2019-02-05T05:38:58.999Z,2.89
2019-02-05T05:41:26.003Z,2.87
2019-02-05T05:43:52.883Z,2.87
2019-02-05T05:46:19.876Z,2.87
2019-02-05T05:48:46.877Z,2.79
2019-02-05T05:51:13.801Z,2.81
2019-02-05T05:53:40.808Z,2.89
2019-02-05T05:56:07.907Z,2.93
2019-02-05T05:58:35.153Z,2.84
2019-02-05T06:01:02.198Z,2.80
2019-02-05T06:03:29.060Z,2.93
2019-02-05T06:05:55.969Z,2.74
2019-02-05T06:08:23.225Z,2.88
2019-02-05T06:10:50.127Z,2.82
2019-02-05T06:13:17.050Z,2.89
2019-02-05T06:15:44.010Z,2.83
2019-02-05T06:18:11.463Z,2.82
2019-02-05T06:20:38.399Z,2.80
2019-02-05T06:23:05.374Z,2.52
2019-02-05T06:25:32.247Z,2.89
2019-02-05T06:27:59.156Z,2.78
2019-02-05T06:30:26.076Z,2.76
2019-02-05T06:32:53.022Z,2.73
2019-02-05T06:35:19.908Z,2.84
2019-02-05T06:37:46.884Z,2.85
2019-02-05T06:40:16.670Z,2.88
2019-02-05T06:42:43.768Z,2.90
2019-02-05T06:45:12.058Z,2.78
2019-02-05T06:47:38.996Z,2.94
2019-02-05T06:50:06.924Z,2.87
2019-02-05T06:52:33.907Z,2.93
2019-02-05T06:55:00.804Z,2.90
2019-02-05T06:57:28.024Z,2.89
2019-02-05T06:59:54.885Z,2.87
2019-02-05T07:02:21.791Z,2.86
2019-02-05T07:04:48.670Z,2.77
2019-02-05T07:07:15.611Z,2.78
2019-02-05T07:09:42.490Z,2.88
2019-02-05T07:12:09.478Z,2.86
2019-02-05T07:14:36.419Z,2.89
2019-02-05T07:17:04.184Z,2.87
2019-02-05T07:19:31.090Z,2.86
2019-02-05T07:21:58.012Z,2.76
2019-02-05T07:24:25.566Z,2.74
2019-02-05T07:26:52.510Z,2.79
2019-02-05T07:29:19.391Z,2.88
2019-02-05T07:31:46.300Z,2.86
2019-02-05T07:34:13.237Z,2.82
2019-02-05T07:36:40.400Z,2.84
2019-02-05T07:39:08.184Z,2.91
2019-02-05T07:41:36.044Z,2.72
2019-02-05T07:44:02.993Z,2.93
2019-02-05T07:46:29.911Z,2.89
2019-02-05T07:48:56.839Z,2.92
2019-02-05T07:51:23.749Z,3.08
2019-02-05T07:53:50.869Z,2.98
2019-02-05T07:56:17.898Z,3.19
2019-02-05T07:58:44.858Z,2.98
2019-02-05T08:01:12.146Z,3.06
2019-02-05T08:03:40.831Z,2.98
2019-02-05T08:06:08.358Z,2.96
2019-02-05T08:08:35.907Z,2.87
2019-02-05T08:11:04.973Z,3.00
2019-02-05T08:13:31.997Z,2.87
2019-02-05T08:15:58.901Z,2.91
2019-02-05T08:18:25.838Z,2.98
2019-02-05T08:20:52.843Z,2.98
2019-02-05T08:23:20.231Z,2.90
2019-02-05T08:25:47.122Z,2.93
2019-02-05T08:28:14.201Z,2.96
2019-02-05T08:30:43.741Z,3.04
2019-02-05T08:33:10.746Z,2.89
2019-02-05T08:35:37.662Z,3.04
2019-02-05T08:38:04.719Z,3.03
2019-02-05T08:40:31.651Z,3.05
2019-02-05T08:42:58.538Z,3.02
2019-02-05T08:45:27.340Z,3.16
2019-02-05T08:47:54.272Z,3.05
2019-02-05T08:50:22.957Z,3.01
2019-02-05T08:52:50.030Z,3.11
2019-02-05T08:55:17.934Z,3.18
2019-02-05T08:57:45.124Z,3.21
2019-02-05T09:00:20.998Z,3.22
2019-02-05T09:02:48.500Z,3.13
2019-02-05T09:05:15.944Z,3.22
2019-02-05T09:07:42.846Z,3.15
2019-02-05T09:10:12.455Z,3.17
2019-02-05T09:12:39.470Z,3.30
2019-02-05T09:15:08.623Z,3.23
2019-02-05T09:17:35.528Z,3.13
2019-02-05T09:20:03.670Z,3.11
2019-02-05T09:22:30.561Z,3.20
2019-02-05T09:24:57.506Z,3.23
2019-02-05T09:27:24.514Z,3.23
2019-02-05T09:29:51.576Z,3.34
2019-02-05T09:32:19.190Z,3.18
2019-02-05T09:34:46.141Z,3.24
2019-02-05T09:37:13.259Z,3.21
2019-02-05T09:39:40.186Z,3.25
2019-02-05T09:42:07.335Z,3.17
2019-02-05T09:44:34.304Z,3.36
2019-02-05T09:47:01.275Z,3.22
2019-02-05T09:49:28.204Z,3.20
2019-02-05T09:51:55.110Z,3.24
2019-02-05T09:54:22.129Z,3.24
2019-02-05T09:56:49.112Z,3.25
2019-02-05T09:59:16.041Z,3.38
2019-02-05T10:01:43.602Z,3.33
2019-02-05T10:04:10.528Z,3.28
2019-02-05T10:06:37.544Z,3.36
2019-02-05T10:09:07.040Z,3.41
2019-02-05T10:11:34.442Z,3.43
2019-02-05T10:14:01.850Z,3.40
2019-02-05T10:16:28.786Z,3.43
2019-02-05T10:18:55.755Z,3.50
2019-02-05T10:21:22.883Z,3.59
2019-02-05T10:23:49.959Z,3.58
2019-02-05T10:26:17.013Z,3.55
2019-02-05T10:28:43.899Z,3.69
2019-02-05T10:31:10.900Z,3.64
2019-02-05T10:33:37.876Z,3.74
2019-02-05T10:36:05.143Z,3.51
2019-02-05T10:38:32.287Z,3.51
2019-02-05T10:40:59.332Z,3.64
2019-02-05T10:43:26.435Z,3.72
2019-02-05T10:45:53.385Z,3.59
2019-02-05T10:48:20.345Z,3.66
2019-02-05T10:50:47.598Z,3.63
2019-02-05T10:53:14.519Z,3.71
2019-02-05T10:55:41.425Z,3.59
2019-02-05T10:58:08.643Z,3.75
2019-02-05T11:00:35.583Z,3.67
2019-02-05T11:03:04.852Z,3.54
2019-02-05T11:05:32.854Z,3.66
2019-02-05T11:07:59.898Z,3.63
2019-02-05T11:10:26.942Z,3.68
2019-02-05T11:12:53.990Z,3.65
2019-02-05T11:15:30.920Z,3.65
2019-02-05T11:17:58.299Z,3.73
2019-02-05T11:20:26.343Z,3.69
2019-02-05T11:22:53.334Z,3.82
2019-02-05T11:25:20.310Z,3.70
2019-02-05T11:27:47.243Z,3.67
2019-02-05T11:30:22.234Z,3.67
2019-02-05T11:32:49.302Z,3.70
2019-02-05T11:35:16.302Z,3.70
2019-02-05T11:37:43.289Z,3.78
2019-02-05T11:40:13.637Z,3.71
2019-02-05T11:42:40.585Z,3.74
2019-02-05T11:45:09.457Z,3.84
2019-02-05T11:47:36.472Z,3.78
2019-02-05T11:50:05.052Z,3.68
2019-02-05T11:52:32.028Z,3.70
2019-02-05T11:54:59.060Z,3.78
2019-02-05T11:57:26.279Z,3.75
2019-02-05T11:59:53.245Z,3.76
2019-02-05T12:02:20.219Z,3.78
2019-02-05T12:04:47.372Z,3.81
2019-02-05T12:07:14.385Z,3.80
2019-02-05T12:09:41.642Z,3.86
2019-02-05T12:12:08.601Z,3.90
2019-02-05T12:14:35.545Z,3.82
2019-02-05T12:17:02.553Z,3.85
2019-02-05T12:19:29.965Z,3.77
2019-02-05T12:21:57.157Z,3.79
2019-02-05T12:24:24.202Z,3.72
2019-02-05T12:26:51.111Z,3.81
2019-02-05T12:29:18.127Z,3.92
2019-02-05T12:31:45.073Z,3.89
2019-02-05T12:34:12.332Z,3.91
2019-02-05T12:36:41.203Z,3.78
2019-02-05T12:39:17.070Z,3.91
2019-02-05T12:41:44.628Z,3.95
2019-02-05T12:44:11.582Z,3.90
2019-02-05T12:46:38.609Z,3.84
2019-02-05T12:49:05.596Z,3.86
2019-02-05T12:51:32.489Z,3.87
2019-02-05T12:53:59.458Z,3.79
2019-02-05T12:56:26.413Z,3.91
2019-02-05T12:58:53.372Z,3.87
2019-02-05T13:01:20.536Z,3.91
2019-02-05T13:03:47.460Z,3.89
2019-02-05T13:06:14.923Z,3.93
2019-02-05T13:08:41.959Z,3.88
2019-02-05T13:11:08.963Z,3.79
2019-02-05T13:13:36.054Z,3.93
2019-02-05T13:16:03.280Z,3.72
2019-02-05T13:18:30.491Z,3.75
2019-02-05T13:20:57.407Z,3.77
2019-02-05T13:23:24.751Z,3.81
2019-02-05T13:25:53.132Z,3.79
2019-02-05T13:28:20.308Z,3.75
2019-02-05T13:30:47.217Z,3.66
2019-02-05T13:33:15.827Z,3.61
2019-02-05T13:35:43.144Z,3.69
2019-02-05T13:38:10.138Z,3.59
2019-02-05T13:40:37.359Z,3.74
2019-02-05T13:43:05.308Z,3.75
2019-02-05T13:45:33.316Z,3.72
2019-02-05T13:48:00.759Z,3.74
2019-02-05T13:50:33.051Z,3.76
2019-02-05T13:52:58.901Z,3.78
2019-02-05T13:55:31.381Z,3.84
2019-02-05T13:57:58.507Z,4.01
2019-02-05T14:00:33.787Z,3.96
2019-02-05T14:03:00.687Z,3.83
2019-02-05T14:05:28.333Z,3.76
2019-02-05T14:07:59.535Z,3.86
2019-02-05T14:10:29.759Z,4.03
2019-02-05T14:12:57.582Z,4.02
2019-02-05T14:15:27.375Z,3.81
2019-02-05T14:17:54.572Z,4.00
2019-02-05T14:20:22.108Z,3.99
2019-02-05T14:22:49.041Z,3.95
2019-02-05T14:25:16.030Z,3.91
2019-02-05T14:27:43.106Z,3.99
2019-02-05T14:30:22.674Z,4.02
2019-02-05T14:32:49.873Z,3.97
2019-02-05T14:35:17.369Z,3.91
2019-02-05T14:37:44.302Z,3.90
2019-02-05T14:40:13.495Z,4.01
2019-02-05T14:42:40.647Z,3.99
2019-02-05T14:45:09.019Z,4.07
2019-02-05T14:47:36.007Z,3.96
2019-02-05T14:50:05.246Z,4.06
2019-02-05T14:52:32.708Z,4.12
2019-02-05T14:55:00.361Z,4.05
2019-02-05T14:57:27.417Z,4.01
2019-02-05T14:59:55.960Z,3.99
2019-02-05T15:02:22.932Z,4.07
2019-02-05T15:04:49.896Z,3.93
2019-02-05T15:07:17.091Z,3.97
2019-02-05T15:09:46.297Z,3.86
2019-02-05T15:12:13.208Z,3.94
2019-02-05T15:14:40.215Z,3.94
2019-02-05T15:17:07.233Z,3.96
2019-02-05T15:19:34.236Z,3.97
2019-02-05T15:22:01.275Z,4.04
2019-02-05T15:24:37.215Z,3.96
2019-02-05T15:26:57.002Z,3.91
2019-02-05T15:29:23.912Z,3.96
2019-02-05T15:31:54.536Z,4.00
2019-02-05T15:34:22.722Z,4.05
2019-02-05T15:36:50.505Z,3.95
2019-02-05T15:39:17.462Z,4.07
2019-02-05T15:41:44.468Z,4.08
2019-02-05T15:44:11.714Z,4.02
2019-02-05T15:46:38.685Z,4.06
2019-02-05T15:49:05.580Z,4.18
2019-02-05T15:51:32.569Z,3.94
2019-02-05T15:53:59.503Z,4.04
2019-02-05T15:56:26.469Z,4.01
2019-02-05T15:58:53.393Z,3.98
2019-02-05T16:01:20.445Z,3.93
2019-02-05T16:03:47.410Z,4.09
2019-02-05T16:06:14.395Z,3.98
2019-02-05T16:08:41.316Z,3.78
2019-02-05T16:11:08.296Z,3.93
2019-02-05T16:13:35.214Z,4.16
2019-02-05T16:16:02.185Z,4.01
2019-02-05T16:18:29.113Z,3.94
2019-02-05T16:20:56.471Z,3.98
2019-02-05T16:23:23.370Z,4.01
2019-02-05T16:25:50.325Z,4.06
2019-02-05T16:28:17.258Z,4.00
2019-02-05T16:30:44.298Z,4.03
2019-02-05T16:33:11.317Z,4.07
2019-02-05T16:35:38.268Z,4.14
2019-02-05T16:38:05.270Z,4.06
2019-02-05T16:40:32.815Z,4.01
2019-02-05T16:42:59.733Z,3.98
2019-02-05T16:45:27.110Z,3.91
2019-02-05T16:47:55.036Z,3.91
2019-02-05T16:50:24.475Z,3.92
2019-02-05T16:52:52.134Z,3.78
2019-02-05T16:55:19.055Z,3.98
2019-02-05T16:57:46.609Z,4.02
2019-02-05T17:00:19.900Z,3.93
2019-02-05T17:02:46.831Z,3.87
2019-02-05T17:05:14.301Z,3.82
2019-02-05T17:07:41.244Z,3.76
2019-02-05T17:10:09.638Z,3.75
2019-02-05T17:12:36.595Z,3.88
2019-02-05T17:15:05.655Z,3.98
2019-02-05T17:17:32.625Z,3.83
2019-02-05T17:19:59.543Z,3.82
2019-02-05T17:22:26.512Z,3.79
2019-02-05T17:24:53.428Z,3.83
2019-02-05T17:27:20.414Z,3.82
2019-02-05T17:29:50.086Z,3.91
2019-02-05T17:32:16.188Z,3.75
2019-02-05T17:34:43.120Z,3.78
2019-02-05T17:37:10.069Z,3.76
2019-02-05T17:39:37.016Z,3.78
2019-02-05T17:42:04.072Z,3.78
2019-02-05T17:44:31.029Z,3.75
2019-02-05T17:46:58.092Z,3.95
2019-02-05T17:49:24.968Z,4.30
2019-02-05T17:51:52.106Z,4.53
2019-02-05T17:54:19.013Z,4.67
2019-02-05T17:56:45.929Z,4.73
2019-02-05T17:59:12.808Z,4.73
2019-02-05T18:01:39.757Z,4.82
2019-02-05T18:04:06.668Z,4.78
2019-02-05T18:06:33.592Z,4.72
2019-02-05T18:09:00.905Z,4.70
2019-02-05T18:11:27.864Z,4.88
2019-02-05T18:13:54.788Z,4.85
2019-02-05T18:16:21.730Z,4.78
2019-02-05T18:18:48.647Z,4.61
2019-02-05T18:21:15.660Z,4.61
2019-02-05T18:23:42.593Z,4.62
2019-02-05T18:26:09.529Z,4.64
2019-02-05T18:28:36.783Z,4.61
2019-02-05T18:31:03.757Z,4.55
2019-02-05T18:33:30.694Z,4.58
2019-02-05T18:35:57.587Z,4.70
2019-02-05T18:38:24.697Z,4.64
2019-02-05T18:40:51.751Z,4.64
2019-02-05T18:43:18.716Z,4.65
2019-02-05T18:45:45.635Z,4.69
2019-02-05T18:48:12.598Z,4.62
2019-02-05T18:50:39.806Z,4.68
2019-02-05T18:53:06.747Z,4.65
2019-02-05T18:55:34.069Z,4.61
2019-02-05T18:58:08.900Z,4.53
2019-02-05T19:00:32.156Z,4.68
2019-02-05T19:02:59.394Z,4.63
2019-02-05T19:05:26.822Z,4.58
2019-02-05T19:07:53.905Z,4.53
2019-02-05T19:10:22.835Z,4.47
2019-02-05T19:12:49.805Z,4.54
2019-02-05T19:15:22.140Z,4.49
2019-02-05T19:17:49.113Z,4.47
2019-02-05T19:20:16.250Z,4.39
2019-02-05T19:22:43.223Z,4.33
2019-02-05T19:25:18.048Z,4.43
2019-02-05T19:27:45.006Z,4.41
2019-02-05T19:30:12.310Z,4.45
2019-02-05T19:32:39.281Z,4.34
2019-02-05T19:35:07.212Z,4.45
2019-02-05T19:37:34.637Z,4.34
2019-02-05T19:40:01.565Z,4.28
2019-02-05T19:42:28.528Z,4.35
2019-02-05T19:45:07.771Z,4.38
2019-02-05T19:47:34.883Z,4.39
2019-02-05T19:50:02.514Z,4.45
2019-02-05T19:52:29.726Z,4.35
2019-02-05T19:54:56.731Z,4.32
2019-02-05T19:57:23.655Z,4.42
2019-02-05T19:59:50.949Z,4.40
2019-02-05T20:02:17.891Z,4.35
2019-02-05T20:04:44.863Z,4.38
2019-02-05T20:07:11.843Z,4.48
2019-02-05T20:09:39.007Z,4.41
2019-02-05T20:12:06.370Z,4.49
2019-02-05T20:14:33.362Z,4.41
2019-02-05T20:17:01.057Z,4.35
2019-02-05T20:19:28.013Z,4.39
2019-02-05T20:21:54.942Z,4.41
2019-02-05T20:24:21.977Z,4.47
2019-02-05T20:26:48.880Z,4.48
2019-02-05T20:29:15.831Z,4.41
2019-02-05T20:31:42.727Z,4.48
2019-02-05T20:34:10.152Z,4.41
2019-02-05T20:36:37.439Z,4.50
2019-02-05T20:39:11.131Z,4.51
2019-02-05T20:41:38.143Z,4.49
2019-02-05T20:44:05.055Z,4.53
2019-02-05T20:46:31.928Z,4.37
2019-02-05T20:48:58.919Z,4.41
2019-02-05T20:51:25.815Z,4.57
2019-02-05T20:53:52.761Z,4.55
2019-02-05T20:56:20.082Z,4.56
2019-02-05T20:58:47.039Z,4.46
2019-02-05T21:01:13.936Z,4.43
2019-02-05T21:03:40.923Z,4.44
2019-02-05T21:06:07.852Z,4.45
2019-02-05T21:08:34.882Z,4.44
2019-02-05T21:11:01.798Z,4.48
2019-02-05T21:13:28.733Z,4.41
2019-02-05T21:15:55.706Z,4.38
2019-02-05T21:18:22.936Z,4.29
2019-02-05T21:20:49.854Z,4.30
2019-02-05T21:23:16.780Z,4.29
2019-02-05T21:25:43.711Z,4.28
2019-02-05T21:28:10.657Z,4.42
2019-02-05T21:30:37.600Z,4.35
2019-02-05T21:33:04.514Z,4.28
2019-02-05T21:35:31.440Z,4.41
2019-02-05T21:37:58.683Z,4.50
2019-02-05T21:40:25.699Z,4.45
2019-02-05T21:42:52.622Z,4.35
2019-02-05T21:45:20.671Z,4.41
2019-02-05T21:47:47.617Z,4.28
2019-02-05T21:50:16.654Z,4.16
2019-02-05T21:52:43.762Z,4.16
2019-02-05T21:55:11.509Z,4.15
2019-02-05T21:57:38.597Z,4.10
2019-02-05T22:00:15.544Z,4.07
2019-02-05T22:02:42.586Z,4.05
2019-02-05T22:05:09.538Z,4.02
2019-02-05T22:07:36.425Z,3.85
2019-02-05T22:10:04.713Z,3.99
2019-02-05T22:12:31.571Z,3.79
2019-02-05T22:14:58.525Z,3.77
2019-02-05T22:17:25.642Z,3.75
2019-02-05T22:19:52.603Z,3.71
2019-02-05T22:22:19.488Z,3.61
2019-02-05T22:24:46.425Z,3.56
2019-02-05T22:27:13.540Z,3.53
2019-02-05T22:29:40.468Z,3.47
2019-02-05T22:32:07.382Z,3.44
2019-02-05T22:34:39.323Z,3.47
2019-02-05T22:37:03.731Z,3.38
2019-02-05T22:39:31.126Z,3.14
2019-02-05T22:41:58.025Z,3.12
2019-02-05T22:44:24.934Z,3.07
2019-02-05T22:46:52.155Z,3.03
2019-02-05T22:49:19.074Z,2.96
2019-02-05T22:51:46.498Z,2.89
2019-02-05T22:54:13.405Z,2.71
2019-02-05T22:56:40.331Z,2.63
2019-02-05T22:59:07.638Z,2.58
2019-02-05T23:01:58.174Z,2.49
2019-02-05T23:05:07.704Z,2.47
2019-02-05T23:07:34.771Z,2.32
2019-02-05T23:10:25.704Z,2.18
2019-02-05T23:12:58.645Z,2.15
2019-02-05T23:15:28.963Z,2.13
2019-02-05T23:17:55.214Z,2.14
2019-02-05T23:20:22.825Z,2.04
2019-02-05T23:22:50.111Z,2.01
2019-02-05T23:25:17.052Z,1.89
2019-02-05T23:27:43.935Z,1.87
2019-02-05T23:30:14.313Z,1.76
2019-02-05T23:32:41.240Z,1.64
2019-02-05T23:35:08.531Z,1.73
2019-02-05T23:37:35.444Z,1.67
2019-02-05T23:40:04.446Z,1.70
2019-02-05T23:42:31.409Z,1.58
2019-02-05T23:44:58.309Z,1.64
2019-02-05T23:47:25.249Z,1.56
2019-02-05T23:49:52.153Z,1.58
2019-02-05T23:52:19.071Z,1.58
2019-02-05T23:54:45.990Z,1.57
2019-02-05T23:57:13.018Z,1.61
2019-02-05T23:59:40.260Z,1.65
